Time;durP1;ratioP1;P1;durP2;ratioP2;P2;SDS_P1;SDS_P2;PMS_P1;PMS_P2;Temp;Humidity;BMP_temperature;BMP_pressure;BME280_temperature;BME280_humidity;BME280_pressure;Samples;Min_cycle;Max_cycle;Signal;HPM_P1;HPM_P2
2022/06/21 00:01:47;;;;;;;11.88;2.63;;;;;;;;;;5118866;27;20437;-70
2022/06/21 00:04:13;;;;;;;9.20;2.80;;;;;;;;;;5118592;27;20066;-73
2022/06/21 00:06:39;;;;;;;8.98;2.13;;;;;;;;;;5101495;27;20048;-73
2022/06/21 00:09:05;;;;;;;11.52;2.50;;;;;;;;;;5118663;27;20038;-73
2022/06/21 00:11:34;;;;;;;8.90;2.20;;;13.60;99.90;;;;;;5118362;27;20074;-73
2022/06/21 00:14:00;;;;;;;7.88;2.40;;;14.30;99.90;;;;;;5118333;27;20392;-73
2022/06/21 00:16:28;;;;;;;9.65;2.67;;;14.70;99.90;;;;;;5118051;27;20047;-72
2022/06/21 00:18:55;;;;;;;9.32;2.70;;;;;;;;;;5118077;27;20436;-73
2022/06/21 00:21:23;;;;;;;8.57;2.28;;;13.60;99.90;;;;;;5101174;27;20057;-73
2022/06/21 00:23:50;;;;;;;9.10;2.30;;;;;;;;;;5118358;27;20421;-73
2022/06/21 00:26:18;;;;;;;8.65;2.20;;;13.50;99.90;;;;;;5118342;27;20527;-73
2022/06/21 00:28:44;;;;;;;7.18;1.92;;;13.40;99.90;;;;;;5118047;27;20039;-73
2022/06/21 00:31:19;;;;;;;8.32;2.33;;;14.60;99.90;;;;;;5101386;27;20050;-72
2022/06/21 00:33:45;;;;;;;7.78;2.35;;;13.30;99.90;;;;;;5101014;27;20482;-72
2022/06/21 00:36:27;;;;;;;10.00;2.40;;;13.40;99.90;;;;;;5117939;27;20043;-72
2022/06/21 00:38:55;;;;;;;8.30;2.30;;;14.30;99.90;;;;;;5100793;27;20043;-73
2022/06/21 00:41:30;;;;;;;10.70;2.63;;;13.40;99.90;;;;;;5117864;27;20039;-72
2022/06/21 00:43:56;;;;;;;10.02;2.58;;;;;;;;;;5117190;27;20035;-73
2022/06/21 00:46:45;;;;;;;9.32;2.28;;;12.80;99.90;;;;;;5117687;27;20042;-73
2022/06/21 00:49:24;;;;;;;8.93;2.33;;;13.30;99.90;;;;;;5117578;27;20046;-73
2022/06/21 00:51:57;;;;;;;11.77;2.55;;;13.10;99.90;;;;;;5118105;27;20474;-73
2022/06/21 00:54:32;;;;;;;7.40;2.42;;;13.10;99.90;;;;;;5117352;27;20047;-70
2022/06/21 00:57:03;;;;;;;7.00;2.45;;;13.00;99.90;;;;;;5117652;27;20062;-71
2022/06/21 00:59:31;;;;;;;9.80;2.53;;;13.10;99.90;;;;;;5117433;27;20039;-71
2022/06/21 01:02:01;;;;;;;7.15;2.47;;;13.00;99.90;;;;;;5117402;27;20070;-71
2022/06/21 01:04:40;;;;;;;9.93;2.97;;;14.10;99.90;;;;;;5117665;27;20035;-71
2022/06/21 01:07:09;;;;;;;8.98;2.70;;;13.10;99.90;;;;;;5100206;27;20039;-70
2022/06/21 01:09:52;;;;;;;6.53;2.55;;;13.10;99.90;;;;;;5117343;27;20039;-70
2022/06/21 01:12:23;;;;;;;16.20;2.80;;;12.90;99.90;;;;;;5117294;27;20123;-70
2022/06/21 01:15:05;;;;;;;10.25;2.70;;;13.20;99.90;;;;;;5116985;27;20163;-71
2022/06/21 01:17:32;;;;;;;7.07;2.58;;;;;;;;;;5117164;27;20047;-70
2022/06/21 01:20:08;;;;;;;10.40;2.60;;;12.90;99.90;;;;;;5099980;27;20118;-70
2022/06/21 01:23:09;;;;;;;8.80;2.47;;;13.60;99.90;;;;;;5116983;27;20039;-70
2022/06/21 01:25:56;;;;;;;8.48;2.70;;;11.70;99.90;;;;;;5111820;27;20491;-71
2022/06/21 01:28:22;;;;;;;8.40;3.00;;;;;;;;;;5099808;27;20447;-70
2022/06/21 01:30:54;;;;;;;10.52;3.10;;;12.80;99.90;;;;;;5116758;27;20035;-70
2022/06/21 01:33:32;;;;;;;6.40;2.50;;;12.70;99.90;;;;;;5116624;27;20091;-70
2022/06/21 01:36:02;;;;;;;10.48;2.92;;;13.30;99.90;;;;;;5099950;27;20042;-70
2022/06/21 01:38:33;;;;;;;8.30;2.78;;;12.80;99.90;;;;;;5099583;27;20039;-70
2022/06/21 01:41:06;;;;;;;6.07;2.45;;;12.70;99.90;;;;;;5116664;27;20047;-70
2022/06/21 01:43:33;;;;;;;5.68;2.70;;;12.70;99.90;;;;;;5116747;27;20084;-70
2022/06/21 01:46:05;;;;;;;10.63;3.20;;;12.70;99.90;;;;;;5099783;27;20031;-70
2022/06/21 01:48:39;;;;;;;10.10;3.10;;;12.40;99.90;;;;;;5116669;27;20047;-70
2022/06/21 01:51:08;;;;;;;9.02;2.40;;;12.70;99.90;;;;;;5116793;27;20752;-70
2022/06/21 01:53:35;;;;;;;6.28;2.60;;;;;;;;;;5116367;27;20492;-70
2022/06/21 01:56:08;;;;;;;8.60;2.45;;;12.60;99.90;;;;;;5116596;27;20043;-70
2022/06/21 01:58:36;;;;;;;;;;;12.40;99.90;;;;;;5116686;27;20071;-70
2022/06/21 02:01:15;;;;;;;7.20;2.95;;;12.30;99.90;;;;;;5099601;27;19915;-70
2022/06/21 02:03:42;;;;;;;7.50;2.90;;;12.50;99.90;;;;;;5116337;27;20122;-70
2022/06/21 02:06:12;;;;;;;7.60;2.67;;;12.70;99.90;;;;;;5116285;27;20043;-70
2022/06/21 02:09:01;;;;;;;7.13;2.45;;;12.50;99.90;;;;;;5099640;27;20120;-70
2022/06/21 02:11:45;;;;;;;7.60;2.75;;;12.80;99.90;;;;;;5116219;27;20118;-70
2022/06/21 02:14:29;;;;;;;6.03;2.60;;;13.10;99.90;;;;;;5099033;27;20475;-70
2022/06/21 02:17:18;;;;;;;11.05;3.50;;;12.40;99.90;;;;;;5115686;27;20126;-70
2022/06/21 02:19:48;;;;;;;8.50;2.63;;;12.60;99.90;;;;;;5116269;27;20062;-70
2022/06/21 02:22:21;;;;;;;6.57;2.92;;;12.60;99.90;;;;;;5116080;28;20039;-70
2022/06/21 02:24:49;;;;;;;13.10;3.33;;;12.50;99.90;;;;;;5116045;28;20035;-70
2022/06/21 02:27:17;;;;;;;8.27;3.20;;;12.40;99.90;;;;;;5099098;28;20051;-70
2022/06/21 02:29:46;;;;;;;8.85;2.80;;;12.30;99.90;;;;;;5116228;28;20043;-70
2022/06/21 02:32:35;;;;;;;6.72;2.80;;;12.10;99.90;;;;;;5115923;28;20125;-70
2022/06/21 02:35:08;;;;;;;7.47;2.90;;;12.30;99.90;;;;;;5098794;28;20411;-70
2022/06/21 02:37:35;;;;;;;8.73;2.60;;;12.30;99.90;;;;;;5115848;28;20100;-70
2022/06/21 02:40:06;;;;;;;8.93;2.97;;;12.00;99.90;;;;;;5115854;28;20051;-71
2022/06/21 02:42:35;;;;;;;5.82;2.92;;;12.10;99.90;;;;;;5115848;28;20088;-70
2022/06/21 02:45:20;;;;;;;7.53;2.92;;;12.20;99.90;;;;;;5116031;28;20445;-71
2022/06/21 02:47:49;;;;;;;7.45;3.08;;;12.10;99.90;;;;;;5115861;28;20076;-70
2022/06/21 02:50:28;;;;;;;9.52;3.15;;;;;;;;;;5115896;28;20078;-70
2022/06/21 02:52:56;;;;;;;9.38;3.33;;;12.20;99.90;;;;;;5115577;28;20091;-70
2022/06/21 02:55:25;;;;;;;8.45;3.65;;;;;;;;;;5115728;28;20043;-70
2022/06/21 02:58:12;;;;;;;9.43;3.35;;;12.20;99.90;;;;;;5115810;28;20031;-72
2022/06/21 03:00:38;;;;;;;8.65;3.28;;;;;;;;;;5115610;28;20047;-70
2022/06/21 03:03:07;;;;;;;13.43;3.60;;;12.10;99.90;;;;;;5115555;28;20130;-70
2022/06/21 03:05:34;;;;;;;11.55;3.65;;;12.30;99.90;;;;;;5099268;28;20058;-70
2022/06/21 03:08:03;;;;;;;13.07;3.50;;;12.80;99.90;;;;;;5117972;27;20047;-70
2022/06/21 03:10:45;;;;;;;6.47;3.08;;;12.20;99.90;;;;;;5102580;27;20042;-69
2022/06/21 03:13:26;;;;;;;8.20;3.40;;;12.00;99.90;;;;;;5119751;27;20047;-70
2022/06/21 03:15:57;;;;;;;9.80;3.60;;;11.70;99.90;;;;;;5119276;27;20048;-70
2022/06/21 03:18:30;;;;;;;6.70;3.75;;;11.90;99.90;;;;;;5119280;27;20053;-69
2022/06/21 03:20:57;;;;;;;6.65;3.20;;;;;;;;;;5119303;27;20039;-70
2022/06/21 03:23:23;;;;;;;6.75;3.15;;;;;;;;;;5119385;27;20043;-70
2022/06/21 03:25:49;;;;;;;11.52;3.90;;;;;;;;;;5119542;27;20039;-70
2022/06/21 03:28:33;;;;;;;10.57;3.45;;;12.10;99.90;;;;;;5119273;27;20083;-70
2022/06/21 03:31:05;;;;;;;17.65;3.75;;;;;;;;;;5119162;27;20125;-70
2022/06/21 03:33:33;;;;;;;8.93;3.83;;;12.20;99.90;;;;;;5102108;27;20499;-70
2022/06/21 03:35:59;;;;;;;10.85;4.25;;;;;;;;;;5119247;27;20347;-70
2022/06/21 03:38:25;;;;;;;9.13;4.50;;;;;;;;;;5102037;27;20104;-70
2022/06/21 03:43:50;;;;;;;10.70;5.32;;;12.20;99.90;;;;;;5118930;27;20047;-70
2022/06/21 03:46:22;;;;;;;10.45;4.15;;;12.10;99.90;;;;;;5101913;27;20126;-70
2022/06/21 03:49:03;;;;;;;12.25;4.38;;;12.40;99.90;;;;;;5118909;27;20039;-70
2022/06/21 03:51:37;;;;;;;11.48;4.63;;;12.30;99.90;;;;;;5118886;27;20125;-70
2022/06/21 03:54:03;;;;;;;7.97;4.45;;;;;;;;;;5118512;27;20111;-70
2022/06/21 03:56:38;;;;;;;10.77;5.13;;;12.50;99.90;;;;;;5101863;27;20388;-70
2022/06/21 03:59:19;;;;;;;9.77;4.43;;;12.30;99.90;;;;;;5118407;27;20092;-70
2022/06/21 04:02:03;;;;;;;8.03;3.60;;;12.50;99.90;;;;;;5118369;27;20075;-70
2022/06/21 04:04:37;;;;;;;10.65;4.65;;;12.40;99.90;;;;;;5118584;27;20023;-70
2022/06/21 04:07:06;;;;;;;6.63;4.10;;;;;;;;;;5118262;27;20479;-69
2022/06/21 04:09:57;;;;;;;9.82;4.70;;;12.40;99.90;;;;;;5118600;27;20041;-70
2022/06/21 04:12:34;;;;;;;10.88;4.90;;;12.60;99.90;;;;;;5118672;27;20046;-70
2022/06/21 04:15:21;;;;;;;7.70;4.45;;;13.40;99.90;;;;;;5118169;27;20139;-70
2022/06/21 04:17:56;;;;;;;9.25;4.63;;;12.50;99.90;;;;;;5118078;27;20491;-70
2022/06/21 04:20:33;;;;;;;8.18;5.00;;;12.40;99.90;;;;;;5117230;27;20047;-70
2022/06/21 04:22:59;;;;;;;10.25;4.60;;;;;;;;;;5117998;27;20127;-71
2022/06/21 04:26:00;;;;;;;8.18;4.50;;;12.60;99.90;;;;;;5118101;27;20118;-70
2022/06/21 04:28:32;;;;;;;8.95;5.10;;;12.50;99.90;;;;;;5118033;27;20042;-71
2022/06/21 04:31:09;;;;;;;7.82;4.22;;;12.50;99.90;;;;;;5118030;27;20132;-70
2022/06/21 04:33:50;;;;;;;9.50;4.70;;;12.60;99.90;;;;;;5118281;27;20058;-70
2022/06/21 04:36:30;;;;;;;7.53;4.53;;;12.70;99.90;;;;;;5118075;27;20050;-71
2022/06/21 04:39:01;;;;;;;6.97;4.50;;;13.40;99.90;;;;;;5117792;27;20043;-70
2022/06/21 04:41:47;;;;;;;11.02;4.68;;;12.30;99.90;;;;;;5118205;27;20035;-71
2022/06/21 04:44:19;;;;;;;7.45;4.40;;;12.50;99.90;;;;;;5117765;27;20499;-70
2022/06/21 04:46:54;;;;;;;12.82;5.03;;;13.10;99.90;;;;;;5117986;27;20039;-71
2022/06/21 04:49:20;;;;;;;10.15;5.22;;;;;;;;;;5117765;27;20043;-71
2022/06/21 04:51:49;;;;;;;12.00;5.90;;;12.60;99.90;;;;;;5117825;27;20514;-71
2022/06/21 04:54:25;;;;;;;12.35;4.80;;;12.90;99.90;;;;;;5117460;27;20043;-71
2022/06/21 04:57:17;;;;;;;8.70;4.50;;;12.50;99.90;;;;;;5100478;27;20039;-71
2022/06/21 04:59:52;;;;;;;9.88;5.60;;;13.40;99.90;;;;;;5117697;27;20111;-71
2022/06/21 05:02:23;;;;;;;9.63;5.40;;;13.10;99.90;;;;;;5117568;27;20037;-71
2022/06/21 05:05:26;;;;;;;9.18;5.50;;;12.80;99.90;;;;;;5117347;27;20091;-71
2022/06/21 05:08:01;;;;;;;12.97;6.40;;;12.00;99.90;;;;;;5116996;27;20523;-71
2022/06/21 05:10:40;;;;;;;14.68;5.82;;;14.00;99.90;;;;;;5135562;27;20317;-71
2022/06/21 05:13:18;;;;;;;11.68;5.35;;;13.40;99.90;;;;;;5117505;27;20117;-71
2022/06/21 05:15:43;;;;;;;10.15;5.78;;;13.90;99.90;;;;;;5116843;27;20050;-71
2022/06/21 05:18:28;;;;;;;11.27;5.82;;;12.50;99.90;;;;;;5117245;27;20043;-71
2022/06/21 05:20:59;;;;;;;7.82;5.15;;;13.50;99.90;;;;;;5099922;27;20042;-71
2022/06/21 05:23:26;;;;;;;10.70;5.60;;;13.60;99.90;;;;;;5116948;27;20559;-71
2022/06/21 05:25:52;;;;;;;11.52;5.65;;;;;;;;;;5135445;27;20502;-71
2022/06/21 05:28:30;;;;;;;15.18;6.00;;;13.60;99.90;;;;;;5117225;27;20035;-70
2022/06/21 05:31:09;;;;;;;13.95;5.65;;;13.80;99.90;;;;;;5116572;27;20125;-71
2022/06/21 05:33:40;;;;;;;12.48;5.32;;;13.70;99.90;;;;;;5116870;27;20054;-73
2022/06/21 05:36:38;;;;;;;13.57;5.90;;;13.70;99.90;;;;;;5116962;27;20047;-73
2022/06/21 05:39:20;;;;;;;11.18;4.88;;;13.00;99.90;;;;;;5107545;27;20495;-73
2022/06/21 05:41:48;;;;;;;12.07;5.40;;;13.70;99.90;;;;;;5116671;27;20035;-73
2022/06/21 05:44:19;;;;;;;9.82;5.40;;;14.70;99.90;;;;;;5099913;27;20039;-73
2022/06/21 05:46:53;;;;;;;12.88;5.88;;;13.80;99.90;;;;;;5116658;27;20042;-73
2022/06/21 05:49:26;;;;;;;11.88;5.63;;;13.80;99.90;;;;;;5099670;27;20043;-74
2022/06/21 05:51:55;;;;;;;9.55;4.82;;;13.80;99.90;;;;;;5099478;27;20054;-71
2022/06/21 05:54:25;;;;;;;9.07;4.97;;;14.20;99.90;;;;;;5116546;27;20562;-71
2022/06/21 05:56:52;;;;;;;10.57;5.43;;;;;;;;;;5116425;27;20053;-71
2022/06/21 05:59:20;;;;;;;11.38;5.47;;;14.40;99.90;;;;;;5099271;27;20085;-71
2022/06/21 06:02:11;;;;;;;13.25;6.30;;;14.10;99.90;;;;;;5116437;27;20035;-71
2022/06/21 06:04:56;;;;;;;15.10;5.95;;;14.20;99.90;;;;;;5116399;27;20035;-71
2022/06/21 06:07:30;;;;;;;20.40;5.93;;;13.00;99.90;;;;;;5099506;27;20043;-71
2022/06/21 06:09:59;;;;;;;12.52;5.43;;;14.30;99.90;;;;;;5116190;27;20701;-71
2022/06/21 06:12:36;;;;;;;15.82;5.55;;;14.40;99.90;;;;;;5116229;27;20046;-71
2022/06/21 06:15:11;;;;;;;8.98;5.65;;;14.30;99.90;;;;;;5116234;28;20562;-71
2022/06/21 06:17:42;;;;;;;16.17;6.60;;;15.00;99.90;;;;;;5116015;27;20133;-71
2022/06/21 06:20:22;;;;;;;16.00;5.80;;;13.50;99.90;;;;;;5116050;28;20039;-71
2022/06/21 06:22:55;;;;;;;9.52;5.80;;;13.40;99.90;;;;;;5115891;28;20046;-71
2022/06/21 06:25:34;;;;;;;16.50;5.18;;;14.30;99.90;;;;;;5116068;28;20047;-71
2022/06/21 06:28:12;;;;;;;13.35;5.55;;;15.30;99.90;;;;;;5099133;28;20058;-71
2022/06/21 06:30:51;;;;;;;12.95;4.38;;;14.40;99.90;;;;;;5115889;28;20078;-71
2022/06/21 06:33:36;;;;;;;13.15;5.75;;;14.90;99.90;;;;;;5115724;28;20518;-71
2022/06/21 06:36:06;;;;;;;17.42;5.38;;;14.50;99.90;;;;;;5116027;28;20039;-71
2022/06/21 06:38:32;;;;;;;11.00;5.05;;;;;;;;;;5115703;28;20035;-72
2022/06/21 06:41:11;;;;;;;15.77;5.22;;;;;;;;;;5115828;28;20071;-71
2022/06/21 06:43:45;;;;;;;14.43;5.60;;;;;;;;;;5119118;27;20035;-71
2022/06/21 06:46:18;;;;;;;10.07;4.50;;;15.00;99.90;;;;;;5119972;27;20491;-71
2022/06/21 06:48:46;;;;;;;15.55;5.85;;;;;;;;;;5119949;27;20043;-71
2022/06/21 06:51:14;;;;;;;10.35;4.78;;;15.80;99.90;;;;;;5119905;27;20083;-71
2022/06/21 06:53:51;;;;;;;14.50;4.70;;;;;;;;;;5120140;27;20046;-71
2022/06/21 06:56:26;;;;;;;13.35;4.45;;;14.90;99.90;;;;;;5103005;27;20039;-71
2022/06/21 06:59:12;;;;;;;10.23;5.07;;;13.80;99.90;;;;;;5119826;27;20070;-71
2022/06/21 07:01:52;;;;;;;16.05;4.60;;;14.70;99.90;;;;;;5119774;27;20039;-71
2022/06/21 07:04:19;;;;;;;12.98;4.32;;;14.70;99.90;;;;;;5138709;27;20391;-71
2022/06/21 07:06:52;;;;;;;14.65;4.35;;;14.90;99.90;;;;;;5119791;27;20122;-71
2022/06/21 07:09:25;;;;;;;12.23;3.90;;;15.20;99.90;;;;;;5119490;27;20054;-71
2022/06/21 07:12:06;;;;;;;12.45;4.65;;;15.00;99.90;;;;;;5119379;27;20049;-71
2022/06/21 07:14:33;;;;;;;8.90;3.97;;;14.90;99.90;;;;;;5119663;27;20407;-71
2022/06/21 07:17:17;;;;;;;10.85;3.72;;;14.50;99.90;;;;;;5102129;27;20487;-71
2022/06/21 07:19:44;;;;;;;10.30;4.28;;;;;;;;;;5119639;27;20399;-71
2022/06/21 07:22:22;;;;;;;11.88;4.10;;;14.60;99.90;;;;;;5119635;27;20035;-71
2022/06/21 07:25:03;;;;;;;8.82;4.18;;;15.30;99.90;;;;;;5119409;27;20529;-71
2022/06/21 07:27:31;;;;;;;14.43;4.40;;;15.40;99.90;;;;;;5119354;27;20047;-71
2022/06/21 07:30:10;;;;;;;16.27;4.10;;;15.70;99.90;;;;;;5119546;27;20062;-71
2022/06/21 07:32:56;;;;;;;13.15;4.53;;;16.10;99.90;;;;;;5119444;27;20122;-71
2022/06/21 07:35:35;;;;;;;11.68;4.40;;;14.70;99.90;;;;;;5102182;27;20054;-71
2022/06/21 07:38:10;;;;;;;9.63;4.88;;;15.60;99.80;;;;;;5102211;27;20406;-71
2022/06/21 07:40:53;;;;;;;7.75;3.97;;;15.60;99.90;;;;;;5102011;27;20054;-71
2022/06/21 07:43:19;;;;;;;12.27;3.92;;;;;;;;;;5118967;27;20046;-71
2022/06/21 07:45:53;;;;;;;8.50;3.60;;;15.30;99.90;;;;;;5118873;27;20068;-71
2022/06/21 07:48:56;;;;;;;7.97;3.90;;;16.10;99.90;;;;;;5119229;27;20380;-71
2022/06/21 07:51:25;;;;;;;11.02;4.13;;;;;;;;;;5103324;27;20051;-71
2022/06/21 07:54:10;;;;;;;8.65;3.90;;;17.30;99.80;;;;;;5118496;27;20096;-71
2022/06/21 07:56:45;;;;;;;9.35;3.90;;;16.70;99.90;;;;;;5118664;27;20046;-71
2022/06/21 07:59:11;;;;;;;7.15;3.50;;;;;;;;;;5118586;27;20122;-71
2022/06/21 08:07:33;;;;;;;5.32;3.10;;;16.40;98.70;;;;;;5118447;27;20047;-71
2022/06/21 08:10:03;;;;;;;5.15;3.15;;;;;;;;;;5118419;27;20047;-71
2022/06/21 08:12:29;;;;;;;6.20;2.90;;;;;;;;;;5118682;27;20035;-73
2022/06/21 08:14:55;;;;;;;8.05;3.60;;;;;;;;;;5118398;27;20042;-74
2022/06/21 08:17:21;;;;;;;10.27;3.20;;;;;;;;;;5118018;27;20312;-74
2022/06/21 08:19:54;;;;;;;10.63;3.47;;;16.80;98.30;;;;;;5118392;27;20047;-74
2022/06/21 08:22:29;;;;;;;11.52;3.20;;;16.70;97.90;;;;;;5118718;27;20089;-73
2022/06/21 08:25:04;;;;;;;5.40;3.05;;;17.60;99.90;;;;;;5118234;27;20050;-73
2022/06/21 08:27:31;;;;;;;11.07;3.20;;;;;;;;;;5118252;27;20506;-73
2022/06/21 08:30:20;;;;;;;6.80;3.13;;;16.90;97.70;;;;;;5101279;27;20135;-73
2022/06/21 08:33:03;;;;;;;10.75;3.90;;;16.80;97.70;;;;;;5117876;27;20126;-73
2022/06/21 08:35:36;;;;;;;;;;;17.20;98.40;;;;;;5136738;27;20483;-73
2022/06/21 08:38:08;;;;;;;9.35;3.30;;;17.60;99.90;;;;;;5101114;27;20289;-73
2022/06/21 08:40:52;;;;;;;6.15;2.97;;;17.30;97.30;;;;;;5117944;27;20046;-74
2022/06/21 08:43:36;;;;;;;9.68;3.35;;;16.70;99.90;;;;;;5101071;27;20046;-74
2022/06/21 08:46:32;;;;;;;7.53;3.08;;;18.30;99.90;;;;;;5117742;27;20125;-74
2022/06/21 08:49:14;;;;;;;5.85;3.10;;;17.80;96.50;;;;;;5117782;27;20042;-73
2022/06/21 08:51:46;;;;;;;7.72;3.40;;;;;;;;;;5117651;27;20046;-73
2022/06/21 08:54:29;;;;;;;13.60;3.45;;;17.00;99.70;;;;;;5117787;27;20050;-73
2022/06/21 08:57:25;;;;;;;9.80;3.38;;;16.60;99.30;;;;;;5117682;27;20043;-73
2022/06/21 08:59:51;;;;;;;10.05;3.28;;;;;;;;;;5095674;27;20051;-73
2022/06/21 09:02:17;;;;;;;10.68;3.72;;;;;;;;;;5100751;27;20039;-73
2022/06/21 09:05:18;;;;;;;6.88;3.90;;;18.10;99.70;;;;;;5116789;28;20050;-73
2022/06/21 09:08:04;;;;;;;6.40;3.47;;;17.40;96.50;;;;;;5016054;28;20517;-73
2022/06/21 09:11:12;;;;;;;5.85;3.75;;;18.40;99.90;;;;;;5096521;27;20047;-73
2022/06/21 09:14:15;;;;;;;9.75;3.45;;;17.50;97.20;;;;;;5070426;27;20047;-73
2022/06/21 09:17:11;;;;;;;5.90;3.00;;;16.90;99.90;;;;;;5117050;27;20142;-74
2022/06/21 09:19:47;;;;;;;7.85;3.08;;;18.50;99.90;;;;;;5117378;27;20043;-73
2022/06/21 09:22:48;;;;;;;7.65;2.80;;;18.40;99.60;;;;;;5117274;27;20170;-73
2022/06/21 09:25:28;;;;;;;9.52;3.42;;;17.60;95.90;;;;;;5116982;27;20043;-73
2022/06/21 09:28:04;;;;;;;6.13;3.20;;;18.10;99.50;;;;;;5117246;27;20043;-74
2022/06/21 09:30:31;;;;;;;13.05;3.15;;;;;;;;;;5116924;27;20047;-74
2022/06/21 09:33:21;;;;;;;8.18;3.10;;;18.00;96.30;;;;;;5116847;27;20047;-74
2022/06/21 09:36:05;;;;;;;8.68;3.45;;;18.10;95.50;;;;;;5116762;27;20394;-74
2022/06/21 09:39:02;;;;;;;10.27;3.53;;;17.90;95.70;;;;;;5116752;27;20514;-74
2022/06/21 09:41:28;;;;;;;6.20;2.90;;;;;;;;;;5116587;27;20411;-74
2022/06/21 09:44:00;;;;;;;5.82;3.40;;;18.10;94.60;;;;;;5116863;27;20042;-74
2022/06/21 09:46:49;;;;;;;11.88;3.60;;;18.80;99.20;;;;;;5116803;27;20483;-74
2022/06/21 09:49:59;;;;;;;10.48;3.30;;;18.60;98.90;;;;;;5116720;27;20046;-74
2022/06/21 09:52:40;;;;;;;13.10;3.47;;;19.00;94.90;;;;;;5015180;28;20087;-74
2022/06/21 09:55:27;;;;;;;11.57;3.70;;;18.50;97.90;;;;;;5112398;27;20063;-74
2022/06/21 09:57:53;;;;;;;7.88;3.67;;;;;;;;;;5099399;27;20035;-74
2022/06/21 10:00:48;;;;;;;7.50;3.60;;;19.20;92.90;;;;;;5116413;27;20480;-74
2022/06/21 10:03:37;;;;;;;8.82;3.80;;;19.60;97.70;;;;;;5099358;27;20035;-73
2022/06/21 10:06:17;;;;;;;10.15;3.35;;;19.30;94.00;;;;;;5099050;27;20043;-73
2022/06/21 10:08:57;;;;;;;12.65;3.38;;;19.40;93.20;;;;;;5116284;27;20043;-73
2022/06/21 10:11:37;;;;;;;5.80;2.70;;;20.30;97.00;;;;;;5116458;27;20039;-73
2022/06/21 10:14:14;;;;;;;8.27;2.95;;;19.80;96.30;;;;;;5116168;27;20506;-73
2022/06/21 10:17:08;;;;;;;7.55;3.35;;;19.50;95.70;;;;;;5115051;27;20048;-73
2022/06/21 10:19:57;;;;;;;6.85;2.60;;;19.70;91.40;;;;;;5116049;27;20047;-73
2022/06/21 10:22:41;;;;;;;5.55;2.50;;;19.50;92.80;;;;;;5116382;27;20042;-73
2022/06/21 10:25:08;;;;;;;6.45;2.55;;;;;;;;;;5115856;27;20042;-73
2022/06/21 10:28:02;;;;;;;5.30;2.30;;;19.20;96.40;;;;;;5116258;28;20116;-73
2022/06/21 10:30:43;;;;;;;8.75;2.90;;;19.80;96.10;;;;;;5077520;28;20082;-73
2022/06/21 10:33:09;;;;;;;7.50;2.60;;;20.10;95.70;;;;;;5115992;28;20039;-73
2022/06/21 10:35:52;;;;;;;10.35;2.35;;;19.90;92.40;;;;;;5099227;28;20043;-73
2022/06/21 10:38:21;;;;;;;6.13;2.63;;;19.70;92.70;;;;;;5098911;28;20502;-73
2022/06/21 10:40:55;;;;;;;7.82;2.60;;;20.40;95.00;;;;;;5116021;28;20368;-73
2022/06/21 10:43:21;;;;;;;6.47;2.45;;;;;;;;;;5115901;28;20039;-73
2022/06/21 10:46:00;;;;;;;7.80;2.40;;;20.60;91.00;;;;;;5115823;28;20042;-73
2022/06/21 10:48:50;;;;;;;8.82;2.88;;;21.00;87.80;;;;;;5115798;28;20039;-73
2022/06/21 10:51:42;;;;;;;6.18;2.22;;;21.00;93.80;;;;;;5115874;28;20082;-73
2022/06/21 10:54:23;;;;;;;4.00;2.30;;;20.70;94.50;;;;;;5115992;28;20101;-73
2022/06/21 10:57:19;;;;;;;9.18;2.47;;;21.60;94.50;;;;;;5115549;28;20047;-73
2022/06/21 11:03:03;;;;;;;7.15;2.80;;;22.30;94.20;;;;;;5115686;28;20039;-73
2022/06/21 11:05:50;;;;;;;6.53;2.58;;;21.50;92.50;;;;;;5115997;28;20035;-73
2022/06/21 11:08:21;;;;;;;6.72;2.45;;;21.60;92.80;;;;;;5115575;28;20039;-73
2022/06/21 11:10:53;;;;;;;11.52;2.35;;;20.70;92.90;;;;;;5098697;28;20121;-73
2022/06/21 11:13:22;;;;;;;5.27;2.37;;;21.00;89.60;;;;;;5115664;28;20051;-73
2022/06/21 11:16:02;;;;;;;7.35;2.67;;;20.70;93.50;;;;;;5098588;28;20510;-73
2022/06/21 11:18:55;;;;;;;6.03;2.60;;;20.90;89.00;;;;;;5098555;28;20043;-73
2022/06/21 11:21:35;;;;;;;8.30;2.70;;;21.50;93.80;;;;;;5115645;28;20043;-73
2022/06/21 11:24:31;;;;;;;5.88;2.70;;;21.40;93.40;;;;;;5098687;28;20387;-73
2022/06/21 11:27:15;;;;;;;5.38;2.45;;;20.90;93.10;;;;;;5115501;28;20031;-73
2022/06/21 11:29:57;;;;;;;6.57;2.92;;;21.30;88.00;;;;;;5136960;27;20039;-73
2022/06/21 11:32:43;;;;;;;6.53;2.83;;;21.40;86.80;;;;;;5102455;27;20035;-74
2022/06/21 11:35:37;;;;;;;7.90;3.22;;;22.20;92.60;;;;;;5102354;27;20074;-74
2022/06/21 11:38:05;;;;;;;6.45;2.60;;;22.20;87.30;;;;;;5102141;27;20039;-74
2022/06/21 11:40:51;;;;;;;10.57;2.63;;;21.70;92.50;;;;;;5119075;27;20118;-73
2022/06/21 11:43:28;;;;;;;7.43;2.72;;;21.50;92.80;;;;;;5119067;27;20043;-73
2022/06/21 11:46:12;;;;;;;8.00;2.60;;;21.60;92.00;;;;;;5119164;27;20039;-73
2022/06/21 11:48:44;;;;;;;6.55;2.50;;;22.10;84.90;;;;;;5118868;27;20043;-73
2022/06/21 11:51:09;;;;;;;8.35;3.35;;;22.10;86.00;;;;;;5118964;27;20092;-74
2022/06/21 11:54:03;;;;;;;6.20;2.60;;;22.20;87.00;;;;;;5118830;27;20043;-74
2022/06/21 11:56:49;;;;;;;8.90;2.70;;;22.10;91.60;;;;;;5075157;27;20051;-74
2022/06/21 11:59:24;;;;;;;6.22;2.45;;;22.60;91.80;;;;;;5118705;27;20387;-74
2022/06/21 12:02:16;;;;;;;6.07;2.42;;;22.00;82.00;;;;;;5118748;27;20035;-73
2022/06/21 12:04:44;;;;;;;13.17;2.90;;;22.90;84.30;;;;;;5118659;27;20037;-73
2022/06/21 12:07:41;;;;;;;9.93;3.45;;;22.40;90.80;;;;;;5101747;27;20673;-73
2022/06/21 12:10:16;;;;;;;7.30;3.13;;;21.90;85.90;;;;;;5083086;27;20047;-73
2022/06/21 12:13:00;;;;;;;6.88;2.90;;;22.10;86.10;;;;;;5118474;27;20505;-73
2022/06/21 12:15:32;;;;;;;9.10;2.85;;;22.50;90.90;;;;;;5118294;27;20521;-73
2022/06/21 12:18:07;;;;;;;7.60;2.95;;;22.50;91.70;;;;;;5117812;27;20051;-73
2022/06/21 12:21:03;;;;;;;8.20;2.97;;;22.00;86.80;;;;;;5118378;27;20043;-73
2022/06/21 12:23:35;;;;;;;5.32;2.47;;;22.50;91.30;;;;;;5109620;27;20053;-73
2022/06/21 12:26:01;;;;;;;;;;;22.60;86.50;;;;;;5118348;27;20039;-73
2022/06/21 12:28:31;;;;;;;7.15;2.50;;;22.70;83.80;;;;;;5118099;27;19984;-73
2022/06/21 12:31:00;;;;;;;3.67;2.15;;;22.80;91.30;;;;;;5118348;27;20047;-73
2022/06/21 12:33:33;;;;;;;5.60;2.90;;;22.90;90.00;;;;;;5101009;27;20042;-72
2022/06/21 12:36:03;;;;;;;9.05;2.70;;;23.50;87.00;;;;;;5136416;27;20096;-72
2022/06/21 12:38:42;;;;;;;6.35;3.00;;;23.30;90.20;;;;;;5117874;27;20502;-74
2022/06/21 12:41:33;;;;;;;5.82;3.08;;;23.20;90.00;;;;;;5116926;27;20066;-73
2022/06/21 12:44:30;;;;;;;9.10;3.35;;;23.10;90.30;;;;;;5117750;27;20122;-73
2022/06/21 12:47:23;;;;;;;6.90;2.60;;;22.90;90.60;;;;;;5117603;27;20051;-73
2022/06/21 12:50:17;;;;;;;7.60;3.22;;;23.00;89.70;;;;;;5117776;27;20039;-73
2022/06/21 12:52:54;;;;;;;8.98;2.33;;;23.20;81.10;;;;;;5117765;27;20047;-73
2022/06/21 12:55:46;;;;;;;9.07;2.30;;;22.50;88.60;;;;;;5100531;27;20051;-73
2022/06/21 12:58:57;;;;;;;9.48;2.50;;;23.40;82.30;;;;;;5099860;27;20047;-74
2022/06/21 13:01:29;;;;;;;6.15;2.47;;;23.60;80.90;;;;;;5117683;27;20379;-72
2022/06/21 13:04:28;;;;;;;6.30;2.40;;;23.60;82.00;;;;;;5135864;27;20039;-72
2022/06/21 13:07:16;;;;;;;5.53;2.30;;;23.80;75.70;;;;;;5117250;27;20039;-72
2022/06/21 13:10:02;;;;;;;4.72;1.90;;;23.90;85.50;;;;;;5117112;27;20483;-72
2022/06/21 13:12:30;;;;;;;5.43;2.45;;;23.80;83.70;;;;;;5117199;27;20039;-72
2022/06/21 13:15:16;;;;;;;4.47;2.20;;;23.60;76.60;;;;;;5117471;27;20047;-72
2022/06/21 13:18:13;;;;;;;9.85;2.55;;;23.60;85.40;;;;;;5099160;27;20092;-72
2022/06/21 13:21:14;;;;;;;7.07;2.95;;;23.20;85.60;;;;;;5117114;27;20039;-72
2022/06/21 13:24:07;;;;;;;7.43;2.65;;;23.70;85.70;;;;;;5109825;27;20047;-72
2022/06/21 13:26:55;;;;;;;7.57;2.75;;;23.80;85.20;;;;;;5117271;27;20043;-72
2022/06/21 13:29:56;;;;;;;8.77;2.67;;;21.90;84.00;;;;;;5116931;27;20483;-72
2022/06/21 13:32:25;;;;;;;6.68;2.90;;;23.60;85.80;;;;;;5100000;27;20130;-72
2022/06/21 13:34:56;;;;;;;8.48;2.90;;;22.70;77.40;;;;;;5099865;27;20062;-72
2022/06/21 13:37:28;;;;;;;6.57;3.00;;;23.00;76.30;;;;;;5116745;27;20039;-72
2022/06/21 13:40:25;;;;;;;8.85;3.08;;;22.70;84.20;;;;;;5116948;27;20031;-72
2022/06/21 13:42:57;;;;;;;6.30;2.92;;;22.70;85.00;;;;;;5116859;27;20071;-72
2022/06/21 13:45:53;;;;;;;7.53;2.75;;;23.40;85.40;;;;;;5116762;27;20070;-71
2022/06/21 13:48:28;;;;;;;7.45;2.97;;;23.60;83.80;;;;;;5099640;27;20043;-72
2022/06/21 13:51:09;;;;;;;10.70;3.17;;;22.30;82.10;;;;;;5116570;27;20483;-72
2022/06/21 13:54:01;;;;;;;7.20;2.90;;;23.40;84.60;;;;;;5116339;27;20475;-72
2022/06/21 13:56:41;;;;;;;7.97;3.25;;;22.60;84.30;;;;;;5116306;27;20509;-72
2022/06/21 13:59:12;;;;;;;8.55;2.90;;;22.50;79.00;;;;;;5116253;27;20487;-73
2022/06/21 14:02:00;;;;;;;8.50;2.83;;;22.40;83.40;;;;;;5116288;27;20035;-72
2022/06/21 14:05:01;;;;;;;5.53;2.47;;;23.60;74.00;;;;;;5116147;27;20035;-72
2022/06/21 14:07:42;;;;;;;11.73;3.40;;;23.40;84.60;;;;;;5116160;27;20031;-72